sensor_id;sensor_type;location;lat;lon;timestamp;pressure;altitude;pressure_sealevel;temperature;humidity
58471;BME280;44258;51.288;12.068;2023-02-03T00:00:04;101156.91;;;3.60;70.99
58471;BME280;44258;51.288;12.068;2023-02-03T00:02:31;101141.97;;;3.51;71.44
58471;BME280;44258;51.288;12.068;2023-02-03T00:04:58;101144.66;;;3.49;71.70
58471;BME280;44258;51.288;12.068;2023-02-03T00:07:25;101146.47;;;3.44;71.98
58471;BME280;44258;51.288;12.068;2023-02-03T00:09:51;101138.41;;;3.52;71.92
58471;BME280;44258;51.288;12.068;2023-02-03T00:12:19;101134.97;;;3.42;71.72
58471;BME280;44258;51.288;12.068;2023-02-03T00:14:46;101122.50;;;3.49;71.63
58471;BME280;44258;51.288;12.068;2023-02-03T00:17:12;101126.09;;;3.46;71.90
58471;BME280;44258;51.288;12.068;2023-02-03T00:19:39;101113.81;;;3.35;72.40
58471;BME280;44258;51.288;12.068;2023-02-03T00:22:06;101120.75;;;3.43;72.06
58471;BME280;44258;51.288;12.068;2023-02-03T00:24:32;101105.59;;;3.55;71.57
58471;BME280;44258;51.288;12.068;2023-02-03T00:26:59;101099.34;;;3.56;71.75
58471;BME280;44258;51.288;12.068;2023-02-03T00:29:27;101093.84;;;3.68;71.61
58471;BME280;44258;51.288;12.068;2023-02-03T00:31:54;101084.13;;;3.67;71.66
58471;BME280;44258;51.288;12.068;2023-02-03T00:34:21;101084.03;;;3.73;70.81
58471;BME280;44258;51.288;12.068;2023-02-03T00:36:48;101072.34;;;3.82;70.92
58471;BME280;44258;51.288;12.068;2023-02-03T00:39:14;101071.38;;;3.87;71.14
58471;BME280;44258;51.288;12.068;2023-02-03T00:41:41;101071.22;;;3.97;70.95
58471;BME280;44258;51.288;12.068;2023-02-03T00:44:07;101066.81;;;3.94;70.91
58471;BME280;44258;51.288;12.068;2023-02-03T00:46:35;101062.41;;;3.93;70.86
58471;BME280;44258;51.288;12.068;2023-02-03T00:49:02;101065.75;;;4.06;70.88
58471;BME280;44258;51.288;12.068;2023-02-03T00:51:29;101068.28;;;4.13;70.27
58471;BME280;44258;51.288;12.068;2023-02-03T00:53:55;101057.66;;;4.12;70.77
58471;BME280;44258;51.288;12.068;2023-02-03T00:56:22;101048.78;;;4.11;70.58
58471;BME280;44258;51.288;12.068;2023-02-03T00:58:49;101045.31;;;4.08;70.66
58471;BME280;44258;51.288;12.068;2023-02-03T01:01:15;101038.31;;;4.01;70.65
58471;BME280;44258;51.288;12.068;2023-02-03T01:03:43;101035.84;;;3.91;71.76
58471;BME280;44258;51.288;12.068;2023-02-03T01:06:11;101033.97;;;3.95;71.32
58471;BME280;44258;51.288;12.068;2023-02-03T01:08:38;101036.63;;;3.95;71.74
58471;BME280;44258;51.288;12.068;2023-02-03T01:11:06;101040.94;;;4.04;71.58
58471;BME280;44258;51.288;12.068;2023-02-03T01:13:33;101040.75;;;4.15;71.10
58471;BME280;44258;51.288;12.068;2023-02-03T01:16:00;101029.88;;;4.25;70.72
58471;BME280;44258;51.288;12.068;2023-02-03T01:18:29;101025.50;;;4.23;70.92
58471;BME280;44258;51.288;12.068;2023-02-03T01:20:57;101013.03;;;4.25;70.86
58471;BME280;44258;51.288;12.068;2023-02-03T01:23:24;101000.78;;;4.16;70.96
58471;BME280;44258;51.288;12.068;2023-02-03T01:25:50;100999.00;;;4.17;70.98
58471;BME280;44258;51.288;12.068;2023-02-03T01:28:16;100995.50;;;4.13;71.11
58471;BME280;44258;51.288;12.068;2023-02-03T01:30:43;100997.28;;;4.14;71.27
58471;BME280;44258;51.288;12.068;2023-02-03T01:33:09;100982.16;;;4.16;71.33
58471;BME280;44258;51.288;12.068;2023-02-03T01:35:36;100980.22;;;4.26;71.71
58471;BME280;44258;51.288;12.068;2023-02-03T01:38:03;100983.63;;;4.31;71.50
58471;BME280;44258;51.288;12.068;2023-02-03T01:40:30;100978.22;;;4.36;71.61
58471;BME280;44258;51.288;12.068;2023-02-03T01:42:56;100981.56;;;4.45;71.17
58471;BME280;44258;51.288;12.068;2023-02-03T01:45:23;100980.56;;;4.52;71.23
58471;BME280;44258;51.288;12.068;2023-02-03T01:47:51;100993.91;;;4.51;70.96
58471;BME280;44258;51.288;12.068;2023-02-03T01:50:20;100992.13;;;4.50;71.07
58471;BME280;44258;51.288;12.068;2023-02-03T01:52:52;100986.72;;;4.55;70.83
58471;BME280;44258;51.288;12.068;2023-02-03T01:55:25;100975.97;;;4.59;70.81
58471;BME280;44258;51.288;12.068;2023-02-03T01:57:56;100954.84;;;4.50;71.20
58471;BME280;44258;51.288;12.068;2023-02-03T02:00:24;100954.78;;;4.55;71.36
58471;BME280;44258;51.288;12.068;2023-02-03T02:02:53;100952.84;;;4.61;71.88
58471;BME280;44258;51.288;12.068;2023-02-03T02:05:24;100954.53;;;4.65;71.56
58471;BME280;44258;51.288;12.068;2023-02-03T02:07:55;100949.03;;;4.73;71.80
58471;BME280;44258;51.288;12.068;2023-02-03T02:10:24;100952.56;;;4.73;71.87
58471;BME280;44258;51.288;12.068;2023-02-03T02:12:50;100956.09;;;4.74;72.12
58471;BME280;44258;51.288;12.068;2023-02-03T02:15:20;100941.22;;;4.65;72.16
58471;BME280;44258;51.288;12.068;2023-02-03T02:18:06;100939.31;;;4.70;72.96
58471;BME280;44258;51.288;12.068;2023-02-03T02:30:00;100932.88;;;4.81;73.44
58471;BME280;44258;51.288;12.068;2023-02-03T02:32:42;100935.56;;;4.81;74.00
58471;BME280;44258;51.288;12.068;2023-02-03T02:35:18;100937.00;;;4.94;73.61
58471;BME280;44258;51.288;12.068;2023-02-03T02:37:51;100930.94;;;4.89;73.77
58471;BME280;44258;51.288;12.068;2023-02-03T02:40:23;100915.81;;;4.89;74.45
58471;BME280;44258;51.288;12.068;2023-02-03T02:42:59;100910.31;;;4.97;74.55
58471;BME280;44258;51.288;12.068;2023-02-03T02:45:28;100906.13;;;5.21;73.74
58471;BME280;44258;51.288;12.068;2023-02-03T02:48:01;100899.34;;;5.09;74.10
58471;BME280;44258;51.288;12.068;2023-02-03T02:50:33;100919.75;;;5.10;74.54
58471;BME280;44258;51.288;12.068;2023-02-03T02:53:02;100915.38;;;5.08;74.48
58471;BME280;44258;51.288;12.068;2023-02-03T02:55:31;100907.28;;;5.11;74.65
58471;BME280;44258;51.288;12.068;2023-02-03T02:58:02;100907.34;;;5.09;75.15
58471;BME280;44258;51.288;12.068;2023-02-03T03:00:33;100899.41;;;5.06;75.50
58471;BME280;44258;51.288;12.068;2023-02-03T03:03:11;100889.56;;;5.10;75.72
58471;BME280;44258;51.288;12.068;2023-02-03T03:05:38;100880.59;;;5.12;75.61
58471;BME280;44258;51.288;12.068;2023-02-03T03:08:08;100875.19;;;5.16;76.00
58471;BME280;44258;51.288;12.068;2023-02-03T03:10:39;100869.13;;;5.09;76.76
58471;BME280;44258;51.288;12.068;2023-02-03T03:13:11;100870.72;;;5.18;76.86
58471;BME280;44258;51.288;12.068;2023-02-03T03:15:40;100863.44;;;5.23;76.69
58471;BME280;44258;51.288;12.068;2023-02-03T03:18:12;100864.28;;;5.25;77.09
58471;BME280;44258;51.288;12.068;2023-02-03T03:20:41;100871.25;;;5.30;76.72
58471;BME280;44258;51.288;12.068;2023-02-03T03:23:11;100868.47;;;5.35;77.06
58471;BME280;44258;51.288;12.068;2023-02-03T03:25:44;100855.94;;;5.39;77.14
58471;BME280;44258;51.288;12.068;2023-02-03T03:28:15;100862.09;;;5.41;77.53
58471;BME280;44258;51.288;12.068;2023-02-03T03:30:43;100873.63;;;5.41;77.80
58471;BME280;44258;51.288;12.068;2023-02-03T03:33:11;100854.75;;;5.50;77.88
58471;BME280;44258;51.288;12.068;2023-02-03T03:35:45;100860.25;;;5.44;78.15
58471;BME280;44258;51.288;12.068;2023-02-03T03:38:18;100854.03;;;5.44;78.16
58471;BME280;44258;51.288;12.068;2023-02-03T03:40:50;100863.47;;;5.56;78.53
58471;BME280;44258;51.288;12.068;2023-02-03T03:43:20;100842.38;;;5.48;78.92
58471;BME280;44258;51.288;12.068;2023-02-03T03:45:53;100838.41;;;5.63;78.33
58471;BME280;44258;51.288;12.068;2023-02-03T03:48:27;100823.41;;;5.59;78.35
58471;BME280;44258;51.288;12.068;2023-02-03T03:50:58;100822.34;;;5.64;78.76
58471;BME280;44258;51.288;12.068;2023-02-03T03:53:29;100805.25;;;5.71;77.96
58471;BME280;44258;51.288;12.068;2023-02-03T03:55:59;100791.22;;;5.65;78.76
58471;BME280;44258;51.288;12.068;2023-02-03T03:58:30;100783.44;;;5.56;79.33
58471;BME280;44258;51.288;12.068;2023-02-03T04:00:59;100790.91;;;5.44;79.69
58471;BME280;44258;51.288;12.068;2023-02-03T04:03:30;100790.78;;;5.47;79.99
58471;BME280;44258;51.288;12.068;2023-02-03T04:05:58;100779.91;;;5.55;80.14
58471;BME280;44258;51.288;12.068;2023-02-03T04:08:24;100788.88;;;5.52;79.93
58471;BME280;44258;51.288;12.068;2023-02-03T04:10:51;100779.09;;;5.53;80.33
58471;BME280;44258;51.288;12.068;2023-02-03T04:13:17;100793.41;;;5.80;78.94
58471;BME280;44258;51.288;12.068;2023-02-03T04:15:44;100813.88;;;5.81;78.93
58471;BME280;44258;51.288;12.068;2023-02-03T04:18:12;100813.69;;;5.87;78.76
58471;BME280;44258;51.288;12.068;2023-02-03T04:20:41;100823.44;;;5.88;78.82
58471;BME280;44258;51.288;12.068;2023-02-03T04:23:08;100824.94;;;5.99;78.18
58471;BME280;44258;51.288;12.068;2023-02-03T04:25:34;100836.41;;;5.71;79.61
58471;BME280;44258;51.288;12.068;2023-02-03T04:28:01;100826.03;;;5.93;78.49
58471;BME280;44258;51.288;12.068;2023-02-03T04:30:27;100838.38;;;5.97;78.29
58471;BME280;44258;51.288;12.068;2023-02-03T04:32:54;100835.34;;;6.09;77.40
58471;BME280;44258;51.288;12.068;2023-02-03T04:35:20;100811.53;;;6.02;78.23
58471;BME280;44258;51.288;12.068;2023-02-03T04:37:48;100812.34;;;6.04;78.11
58471;BME280;44258;51.288;12.068;2023-02-03T04:40:14;100796.81;;;6.17;77.45
58471;BME280;44258;51.288;12.068;2023-02-03T04:42:41;100800.25;;;6.22;77.66
58471;BME280;44258;51.288;12.068;2023-02-03T04:45:09;100791.44;;;6.18;77.68
58471;BME280;44258;51.288;12.068;2023-02-03T04:47:36;100787.75;;;6.22;77.50
58471;BME280;44258;51.288;12.068;2023-02-03T04:50:04;100782.53;;;6.19;77.56
58471;BME280;44258;51.288;12.068;2023-02-03T04:52:31;100784.31;;;6.19;77.94
58471;BME280;44258;51.288;12.068;2023-02-03T04:54:59;100794.16;;;6.17;78.01
58471;BME280;44258;51.288;12.068;2023-02-03T04:57:25;100786.84;;;6.23;78.01
58471;BME280;44258;51.288;12.068;2023-02-03T04:59:54;100774.78;;;6.10;78.47
58471;BME280;44258;51.288;12.068;2023-02-03T05:02:20;100762.06;;;6.18;78.34
58471;BME280;44258;51.288;12.068;2023-02-03T05:04:50;100743.13;;;6.27;77.68
58471;BME280;44258;51.288;12.068;2023-02-03T05:07:17;100756.78;;;6.17;78.36
58471;BME280;44258;51.288;12.068;2023-02-03T05:09:44;100739.69;;;6.22;77.94
58471;BME280;44258;51.288;12.068;2023-02-03T05:12:11;100733.28;;;6.28;77.85
58471;BME280;44258;51.288;12.068;2023-02-03T05:14:38;100714.66;;;6.26;77.69
58471;BME280;44258;51.288;12.068;2023-02-03T05:17:04;100728.16;;;6.22;77.88
58471;BME280;44258;51.288;12.068;2023-02-03T05:19:30;100709.06;;;6.34;77.38
58471;BME280;44258;51.288;12.068;2023-02-03T05:21:57;100715.66;;;6.22;77.92
58471;BME280;44258;51.288;12.068;2023-02-03T05:24:24;100714.38;;;6.07;78.06
58471;BME280;44258;51.288;12.068;2023-02-03T05:26:50;100709.88;;;6.08;78.24
58471;BME280;44258;51.288;12.068;2023-02-03T05:29:18;100712.56;;;6.08;78.47
58471;BME280;44258;51.288;12.068;2023-02-03T05:31:44;100704.91;;;6.25;77.77
58471;BME280;44258;51.288;12.068;2023-02-03T05:34:11;100714.44;;;6.04;78.63
58471;BME280;44258;51.288;12.068;2023-02-03T05:36:38;100719.41;;;6.17;78.27
58471;BME280;44258;51.288;12.068;2023-02-03T05:39:05;100733.38;;;6.25;77.72
58471;BME280;44258;51.288;12.068;2023-02-03T05:41:31;100730.16;;;6.15;77.66
58471;BME280;44258;51.288;12.068;2023-02-03T05:44:15;100724.41;;;6.27;77.01
58471;BME280;44258;51.288;12.068;2023-02-03T05:46:43;100733.50;;;6.22;77.42
58471;BME280;44258;51.288;12.068;2023-02-03T05:49:10;100733.34;;;6.26;76.93
58471;BME280;44258;51.288;12.068;2023-02-03T05:51:37;100731.41;;;6.31;76.81
58471;BME280;44258;51.288;12.068;2023-02-03T05:54:03;100725.31;;;6.26;77.02
58471;BME280;44258;51.288;12.068;2023-02-03T05:56:30;100709.88;;;6.36;76.33
58471;BME280;44258;51.288;12.068;2023-02-03T05:58:59;100707.91;;;6.41;76.25
58471;BME280;44258;51.288;12.068;2023-02-03T06:01:26;100705.94;;;6.48;75.77
58471;BME280;44258;51.288;12.068;2023-02-03T06:03:54;100695.25;;;6.48;75.72
58471;BME280;44258;51.288;12.068;2023-02-03T06:06:20;100697.56;;;6.59;75.37
58471;BME280;44258;51.288;12.068;2023-02-03T06:08:46;100694.22;;;6.52;75.22
58471;BME280;44258;51.288;12.068;2023-02-03T06:11:15;100701.81;;;6.64;74.67
58471;BME280;44258;51.288;12.068;2023-02-03T06:13:41;100686.75;;;6.62;74.62
58471;BME280;44258;51.288;12.068;2023-02-03T06:16:08;100687.16;;;6.49;74.99
58471;BME280;44258;51.288;12.068;2023-02-03T06:18:34;100680.97;;;6.49;75.03
58471;BME280;44258;51.288;12.068;2023-02-03T06:21:02;100669.56;;;6.44;75.21
58471;BME280;44258;51.288;12.068;2023-02-03T06:23:29;100668.38;;;6.52;74.49
58471;BME280;44258;51.288;12.068;2023-02-03T06:25:56;100671.25;;;6.46;74.64
58471;BME280;44258;51.288;12.068;2023-02-03T06:28:24;100669.69;;;6.39;74.75
58471;BME280;44258;51.288;12.068;2023-02-03T06:30:50;100655.31;;;6.43;74.84
58471;BME280;44258;51.288;12.068;2023-02-03T06:33:17;100662.00;;;6.57;74.02
58471;BME280;44258;51.288;12.068;2023-02-03T06:35:44;100657.22;;;6.66;73.67
58471;BME280;44258;51.288;12.068;2023-02-03T06:38:11;100655.88;;;6.53;74.21
58471;BME280;44258;51.288;12.068;2023-02-03T06:40:38;100655.28;;;6.45;74.19
58471;BME280;44258;51.288;12.068;2023-02-03T06:43:04;100654.41;;;6.44;74.29
58471;BME280;44258;51.288;12.068;2023-02-03T06:45:30;100655.03;;;6.52;74.24
58471;BME280;44258;51.288;12.068;2023-02-03T06:47:58;100644.22;;;6.56;73.73
58471;BME280;44258;51.288;12.068;2023-02-03T06:50:25;100637.47;;;6.70;73.12
58471;BME280;44258;51.288;12.068;2023-02-03T06:52:51;100637.91;;;6.58;73.40
58471;BME280;44258;51.288;12.068;2023-02-03T06:55:20;100634.28;;;6.59;73.58
58471;BME280;44258;51.288;12.068;2023-02-03T06:57:47;100629.47;;;6.70;72.66
58471;BME280;44258;51.288;12.068;2023-02-03T07:00:16;100618.22;;;6.61;73.12
58471;BME280;44258;51.288;12.068;2023-02-03T07:02:44;100623.34;;;6.67;72.71
58471;BME280;44258;51.288;12.068;2023-02-03T07:05:11;100621.75;;;6.61;72.96
58471;BME280;44258;51.288;12.068;2023-02-03T07:07:37;100627.81;;;6.66;72.62
58471;BME280;44258;51.288;12.068;2023-02-03T07:10:04;100610.84;;;6.67;72.34
58471;BME280;44258;51.288;12.068;2023-02-03T07:12:32;100615.28;;;6.68;72.35
58471;BME280;44258;51.288;12.068;2023-02-03T07:15:00;100609.81;;;6.71;72.26
58471;BME280;44258;51.288;12.068;2023-02-03T07:17:27;100602.56;;;6.75;72.25
58471;BME280;44258;51.288;12.068;2023-02-03T07:19:53;100601.47;;;6.81;71.65
58471;BME280;44258;51.288;12.068;2023-02-03T07:22:20;100595.88;;;6.88;71.14
58471;BME280;44258;51.288;12.068;2023-02-03T07:24:46;100598.25;;;6.71;72.19
58471;BME280;44258;51.288;12.068;2023-02-03T07:27:12;100615.03;;;6.76;71.88
58471;BME280;44258;51.288;12.068;2023-02-03T07:29:40;100614.94;;;6.78;71.97
58471;BME280;44258;51.288;12.068;2023-02-03T07:32:07;100597.53;;;6.66;72.12
58471;BME280;44258;51.288;12.068;2023-02-03T07:34:33;100603.22;;;6.82;71.77
58471;BME280;44258;51.288;12.068;2023-02-03T07:37:00;100603.34;;;6.79;71.38
58471;BME280;44258;51.288;12.068;2023-02-03T07:39:26;100600.66;;;6.79;71.43
58471;BME280;44258;51.288;12.068;2023-02-03T07:41:53;100610.81;;;6.69;71.40
58471;BME280;44258;51.288;12.068;2023-02-03T07:44:19;100582.22;;;6.71;71.44
58471;BME280;44258;51.288;12.068;2023-02-03T07:46:47;100588.13;;;6.81;71.03
58471;BME280;44258;51.288;12.068;2023-02-03T07:49:13;100582.53;;;6.62;71.54
58471;BME280;44258;51.288;12.068;2023-02-03T07:51:40;100586.44;;;6.78;71.03
58471;BME280;44258;51.288;12.068;2023-02-03T07:54:08;100583.34;;;6.89;70.58
58471;BME280;44258;51.288;12.068;2023-02-03T07:56:35;100586.84;;;6.91;70.46
58471;BME280;44258;51.288;12.068;2023-02-03T07:59:02;100583.19;;;6.93;70.46
58471;BME280;44258;51.288;12.068;2023-02-03T08:01:28;100577.97;;;6.90;70.49
58471;BME280;44258;51.288;12.068;2023-02-03T08:03:57;100581.78;;;6.83;70.24
58471;BME280;44258;51.288;12.068;2023-02-03T08:06:26;100570.41;;;6.78;70.68
58471;BME280;44258;51.288;12.068;2023-02-03T08:08:54;100568.13;;;6.91;70.01
58471;BME280;44258;51.288;12.068;2023-02-03T08:11:21;100561.63;;;6.74;70.26
58471;BME280;44258;51.288;12.068;2023-02-03T08:13:48;100556.34;;;6.97;69.63
58471;BME280;44258;51.288;12.068;2023-02-03T08:16:15;100558.56;;;7.09;69.32
58471;BME280;44258;51.288;12.068;2023-02-03T08:18:41;100544.53;;;7.02;69.76
58471;BME280;44258;51.288;12.068;2023-02-03T08:21:10;100539.50;;;6.94;69.60
58471;BME280;44258;51.288;12.068;2023-02-03T08:23:36;100556.69;;;6.87;69.59
58471;BME280;44258;51.288;12.068;2023-02-03T08:26:03;100552.91;;;6.93;69.60
58471;BME280;44258;51.288;12.068;2023-02-03T08:28:30;100552.28;;;6.86;69.97
58471;BME280;44258;51.288;12.068;2023-02-03T08:30:59;100558.53;;;6.85;69.94
58471;BME280;44258;51.288;12.068;2023-02-03T08:33:25;100539.19;;;7.02;69.60
58471;BME280;44258;51.288;12.068;2023-02-03T08:35:52;100530.56;;;6.94;69.40
58471;BME280;44258;51.288;12.068;2023-02-03T08:38:21;100529.94;;;7.11;68.96
58471;BME280;44258;51.288;12.068;2023-02-03T08:40:48;100515.25;;;6.99;69.47
58471;BME280;44258;51.288;12.068;2023-02-03T08:43:14;100511.53;;;7.03;69.30
58471;BME280;44258;51.288;12.068;2023-02-03T08:45:41;100515.47;;;6.93;70.09
58471;BME280;44258;51.288;12.068;2023-02-03T08:48:08;100509.03;;;6.99;69.76
58471;BME280;44258;51.288;12.068;2023-02-03T08:50:34;100491.19;;;6.76;70.23
58471;BME280;44258;51.288;12.068;2023-02-03T08:53:01;100497.69;;;6.92;70.26
58471;BME280;44258;51.288;12.068;2023-02-03T08:55:29;100482.41;;;6.96;69.99
58471;BME280;44258;51.288;12.068;2023-02-03T08:57:55;100464.50;;;6.98;69.75
58471;BME280;44258;51.288;12.068;2023-02-03T09:00:22;100486.97;;;6.70;70.97
58471;BME280;44258;51.288;12.068;2023-02-03T09:02:48;100474.53;;;6.69;70.66
58471;BME280;44258;51.288;12.068;2023-02-03T09:05:15;100481.72;;;6.67;70.88
58471;BME280;44258;51.288;12.068;2023-02-03T09:07:42;100472.38;;;6.79;71.32
58471;BME280;44258;51.288;12.068;2023-02-03T09:10:09;100466.94;;;7.04;70.47
58471;BME280;44258;51.288;12.068;2023-02-03T09:12:37;100471.22;;;7.08;70.05
58471;BME280;44258;51.288;12.068;2023-02-03T09:15:04;100473.00;;;7.09;70.23
58471;BME280;44258;51.288;12.068;2023-02-03T09:17:34;100474.16;;;7.02;70.11
58471;BME280;44258;51.288;12.068;2023-02-03T09:20:01;100476.53;;;7.09;70.15
58471;BME280;44258;51.288;12.068;2023-02-03T09:22:27;100472.19;;;6.83;70.88
58471;BME280;44258;51.288;12.068;2023-02-03T09:24:54;100461.72;;;7.01;70.84
58471;BME280;44258;51.288;12.068;2023-02-03T09:27:20;100450.53;;;7.13;70.04
58471;BME280;44258;51.288;12.068;2023-02-03T09:29:48;100461.16;;;7.14;70.62
58471;BME280;44258;51.288;12.068;2023-02-03T09:32:14;100475.59;;;7.10;70.44
58471;BME280;44258;51.288;12.068;2023-02-03T09:34:41;100458.56;;;7.35;69.82
58471;BME280;44258;51.288;12.068;2023-02-03T09:37:10;100469.94;;;7.18;69.84
58471;BME280;44258;51.288;12.068;2023-02-03T09:39:37;100468.38;;;7.12;70.07
58471;BME280;44258;51.288;12.068;2023-02-03T09:42:18;100472.22;;;7.05;69.87
58471;BME280;44258;51.288;12.068;2023-02-03T09:45:00;100494.94;;;7.17;70.17
58471;BME280;44258;51.288;12.068;2023-02-03T09:47:35;100488.94;;;7.10;70.21
58471;BME280;44258;51.288;12.068;2023-02-03T09:50:05;100490.00;;;7.06;70.10
58471;BME280;44258;51.288;12.068;2023-02-03T09:52:34;100484.06;;;7.22;69.53
58471;BME280;44258;51.288;12.068;2023-02-03T09:55:06;100478.75;;;7.20;69.78
58471;BME280;44258;51.288;12.068;2023-02-03T09:57:41;100468.75;;;7.03;70.32
58471;BME280;44258;51.288;12.068;2023-02-03T10:00:19;100460.56;;;7.30;69.58
58471;BME280;44258;51.288;12.068;2023-02-03T10:02:54;100472.81;;;7.13;70.36
58471;BME280;44258;51.288;12.068;2023-02-03T10:05:24;100446.88;;;7.16;70.00
58471;BME280;44258;51.288;12.068;2023-02-03T10:08:01;100457.28;;;7.00;70.68
58471;BME280;44258;51.288;12.068;2023-02-03T10:10:36;100441.75;;;6.87;71.16
58471;BME280;44258;51.288;12.068;2023-02-03T10:13:09;100440.81;;;6.88;70.97
58471;BME280;44258;51.288;12.068;2023-02-03T10:15:52;100432.38;;;6.99;70.91
58471;BME280;44258;51.288;12.068;2023-02-03T10:18:26;100428.88;;;6.97;71.58
58471;BME280;44258;51.288;12.068;2023-02-03T10:20:56;100415.78;;;7.13;71.06
58471;BME280;44258;51.288;12.068;2023-02-03T10:23:28;100415.13;;;7.06;71.60
58471;BME280;44258;51.288;12.068;2023-02-03T10:26:01;100403.31;;;6.90;72.63
58471;BME280;44258;51.288;12.068;2023-02-03T10:28:30;100397.22;;;7.08;71.63
58471;BME280;44258;51.288;12.068;2023-02-03T10:31:01;100374.72;;;7.14;71.78
58471;BME280;44258;51.288;12.068;2023-02-03T10:33:33;100375.06;;;7.27;71.41
58471;BME280;44258;51.288;12.068;2023-02-03T10:36:04;100391.25;;;7.24;71.81
58471;BME280;44258;51.288;12.068;2023-02-03T10:38:45;100389.75;;;7.17;72.33
58471;BME280;44258;51.288;12.068;2023-02-03T10:41:17;100403.22;;;7.15;72.45
58471;BME280;44258;51.288;12.068;2023-02-03T10:43:44;100404.25;;;6.89;73.81
58471;BME280;44258;51.288;12.068;2023-02-03T10:46:18;100407.59;;;6.94;73.57
58471;BME280;44258;51.288;12.068;2023-02-03T10:48:46;100401.28;;;6.97;73.66
58471;BME280;44258;51.288;12.068;2023-02-03T10:51:17;100397.00;;;6.92;73.83
58471;BME280;44258;51.288;12.068;2023-02-03T10:53:45;100418.06;;;7.22;72.63
58471;BME280;44258;51.288;12.068;2023-02-03T10:56:12;100414.41;;;7.03;73.38
58471;BME280;44258;51.288;12.068;2023-02-03T10:58:47;100424.16;;;7.04;73.66
58471;BME280;44258;51.288;12.068;2023-02-03T11:01:17;100430.88;;;7.14;73.34
58471;BME280;44258;51.288;12.068;2023-02-03T11:03:54;100423.25;;;7.05;73.81
58471;BME280;44258;51.288;12.068;2023-02-03T11:06:21;100423.59;;;7.40;72.48
58471;BME280;44258;51.288;12.068;2023-02-03T11:08:49;100429.56;;;7.46;72.04
58471;BME280;44258;51.288;12.068;2023-02-03T11:11:20;100418.34;;;7.59;72.06
58471;BME280;44258;51.288;12.068;2023-02-03T11:13:51;100407.16;;;7.27;73.21
58471;BME280;44258;51.288;12.068;2023-02-03T11:16:20;100416.38;;;7.42;73.20
58471;BME280;44258;51.288;12.068;2023-02-03T11:18:52;100418.25;;;7.40;73.37
58471;BME280;44258;51.288;12.068;2023-02-03T11:21:21;100416.91;;;7.29;73.54
58471;BME280;44258;51.288;12.068;2023-02-03T11:23:53;100413.22;;;7.32;73.62
58471;BME280;44258;51.288;12.068;2023-02-03T11:26:24;100428.47;;;7.30;73.50
58471;BME280;44258;51.288;12.068;2023-02-03T11:28:54;100414.38;;;7.25;73.89
58471;BME280;44258;51.288;12.068;2023-02-03T11:31:25;100421.94;;;7.37;74.25
58471;BME280;44258;51.288;12.068;2023-02-03T11:33:57;100424.66;;;7.36;74.53
58471;BME280;44258;51.288;12.068;2023-02-03T11:36:27;100412.50;;;7.49;74.27
58471;BME280;44258;51.288;12.068;2023-02-03T11:39:08;100417.13;;;7.45;74.63
58471;BME280;44258;51.288;12.068;2023-02-03T11:41:37;100420.13;;;7.38;75.76
58471;BME280;44258;51.288;12.068;2023-02-03T11:44:10;100417.66;;;7.11;76.47
58471;BME280;44258;51.288;12.068;2023-02-03T11:46:38;100412.59;;;7.25;76.94
58471;BME280;44258;51.288;12.068;2023-02-03T11:49:16;100416.44;;;7.18;77.69
58471;BME280;44258;51.288;12.068;2023-02-03T11:51:54;100408.88;;;7.29;77.25
58471;BME280;44258;51.288;12.068;2023-02-03T11:54:32;100423.97;;;7.08;78.55
58471;BME280;44258;51.288;12.068;2023-02-03T11:57:24;100420.63;;;7.03;79.08
58471;BME280;44258;51.288;12.068;2023-02-03T12:00:14;100432.44;;;7.20;78.20
58471;BME280;44258;51.288;12.068;2023-02-03T12:06:04;100422.47;;;7.01;79.65
58471;BME280;44258;51.288;12.068;2023-02-03T12:08:56;100419.34;;;6.90;80.87
58471;BME280;44258;51.288;12.068;2023-02-03T12:11:35;100399.66;;;7.14;79.21
58471;BME280;44258;51.288;12.068;2023-02-03T12:14:20;100403.47;;;6.87;81.04
58471;BME280;44258;51.288;12.068;2023-02-03T12:17:03;100408.72;;;7.10;80.23
58471;BME280;44258;51.288;12.068;2023-02-03T12:19:48;100383.19;;;7.03;81.37
58471;BME280;44258;51.288;12.068;2023-02-03T12:22:21;100361.78;;;7.25;80.14
58471;BME280;44258;51.288;12.068;2023-02-03T12:24:55;100357.66;;;7.17;81.11
58471;BME280;44258;51.288;12.068;2023-02-03T12:27:33;100335.84;;;7.27;80.71
58471;BME280;44258;51.288;12.068;2023-02-03T12:30:11;100342.25;;;7.23;81.44
58471;BME280;44258;51.288;12.068;2023-02-03T12:32:41;100353.28;;;7.16;82.31
58471;BME280;44258;51.288;12.068;2023-02-03T12:35:17;100352.78;;;7.48;80.97
58471;BME280;44258;51.288;12.068;2023-02-03T12:37:48;100370.75;;;7.45;80.76
58471;BME280;44258;51.288;12.068;2023-02-03T12:40:18;100367.69;;;7.54;80.26
58471;BME280;44258;51.288;12.068;2023-02-03T12:42:52;100383.75;;;7.74;79.14
58471;BME280;44258;51.288;12.068;2023-02-03T12:45:23;100387.72;;;7.66;79.49
58471;BME280;44258;51.288;12.068;2023-02-03T12:47:53;100380.22;;;7.74;78.32
58471;BME280;44258;51.288;12.068;2023-02-03T12:50:28;100378.19;;;7.59;79.56
58471;BME280;44258;51.288;12.068;2023-02-03T12:52:59;100389.44;;;7.24;80.16
58471;BME280;44258;51.288;12.068;2023-02-03T12:55:31;100378.41;;;7.54;79.84
58471;BME280;44258;51.288;12.068;2023-02-03T12:58:03;100370.59;;;7.70;78.94
58471;BME280;44258;51.288;12.068;2023-02-03T13:00:37;100387.56;;;7.48;79.15
58471;BME280;44258;51.288;12.068;2023-02-03T13:03:12;100414.63;;;7.83;77.63
58471;BME280;44258;51.288;12.068;2023-02-03T13:05:45;100407.56;;;7.82;77.35
58471;BME280;44258;51.288;12.068;2023-02-03T13:08:22;100417.81;;;7.71;76.70
58471;BME280;44258;51.288;12.068;2023-02-03T13:10:54;100436.66;;;7.47;77.30
58471;BME280;44258;51.288;12.068;2023-02-03T13:13:30;100428.97;;;7.82;76.00